Portada
METAR-TAF:

METAR-TAF

Aeroports :

Doha, Qatar

latitud: 25-15-40N, longitud: 051-33-54E, altitud: 11 m

Observació

L'informe es va fer fa 38 minuts, a les 12:00 UTC
Vent 11 kt del Nord/Nord-Est
Temperatura 38°C
Humitat 57%
Pressió 995 hPa
Visibilitat 10 km o més
sense núvols per sota de 1500 mi sense presència de cumulonimbus.

METAR: OTBD 081200Z 03011KT CAVOK 38/28 Q0995 NOSIG

Hora: 15:38 (12:38 UTC)

Pronòstic

L'informe es va fer fa 1 hora i 15 minuts, a les 11:23 UTC
Pronòstic vàlid del 08 a les 12 UTC al 09 a les 18 UTC
Vent 8 kt del Nord
Visibilitat: 8000 m
Temporalment
l' 08 a les 12 UTC al 08 a les 23 UTC
Vent 8 kt del Est/Nord-Est
Temporalment
l' 08 a les 21 UTC al 09 a les 07 UTC
Vent 3 kt amb direcció variable
Probabilitat 30% :
Temporalment
l' 08 a les 21 UTC al 09 a les 07 UTC
Vent 5 kt del Oest/Nord-Oest
Visibilitat: 5000 m
calitja

TAF: OTBD 081123Z 0812/0918 36008KT 8000 NSC TEMPO 0812/0823 07008KT TEMPO 0821/0907 VRB03KT PROB30 TEMPO 0821/0907 29005KT 5000 HZ

Observacions i pronòstics meteorològics de més de 4000 aeroports (METAR i TAF).

Les estacions disponibles són els punts grocs i vermells al mapa.

Posi el ratolí al punt desitjat per veure el nom de l'estació.

Feu clic per veure les observacions i els pronòstics meteorològics.

Per canviar el mapa: feu clic els botons verds amb una creu de color negre per apropar; al botó verd amb un guió per allunyar la imatge; o en les fletxes verdes per a mapes adjacents.


METAR-TAF: